Langley, Virginia
Current Conditions -  °F | °C
As of 2:31 PM on Thursday 27 Nov 2014 (Local Time) from KLFI Reporting Station
Light Rain Light Rain  
Wind Chill: 40°   Ceiling: 2600
Heat Index: 45°   Visibility: 10mi
Dew Point: 45°   Wind: 8mph
Humidity: 100%   Direction: 310°NW
Pressure: 30.03"   Gusts: NA
Location:  37.0868°N, 76.3631°W
Report Text: KLFI 271931Z AUTO 31007KT 10SM -RA FEW011 SCT016 SCT021 BKN026 OVC034 07/07 A3003 RMK AO2 RAB1911DZB1907E1911 CIG 019V027 CIG 012 RWY8 $
Loading
Personal Weather Stations






























Interactive Weather Map New forecast layout! Learn more

10-Day Weather Forecast

Advertisements
Track Severe Weather on mobile